Flight Track Log - Related Links

Times and Time Zones

All times are in EDT time to prevent confusion due to time zone crossing. See the FLG4081 flight status page for this flight to view local times or setup timezone preferences in your user account.

Time Position Orientation Groundspeed Altitude Reporting Facility
EDT Latitude Longitude Course Direction KTS MPH feet Rate Location/Type
Fri 10:01:13 PM 42.2017 -83.3583 275° West 157 181 1,300  Level Cleveland Center
Fri 10:01:43 PM 42.1989 -83.3861 262° West 168 193 2,900 1,486 Climbing Cleveland Center
Fri 10:03:02 PM 42.2128 -83.4906 280° West 257 296 4,000 781 Climbing Cleveland Center
Fri 10:04:00 PM 42.2242 -83.7476 275° West  Level FlightAware Approximate
Fri 10:04:09 PM 42.2208 -83.5917 276° West 251 289 4,800  Level Cleveland Center
Fri 10:05:00 PM 42.2308 -83.8475 275° West  Level FlightAware Approximate
Fri 10:05:10 PM 42.2286 -83.6903 276° West 261 300 8,000  Level Cleveland Center
Fri 10:05:52 PM 42.2328 -83.7578 275° West 268 308 9,800 429 Climbing Cleveland Center
Fri 10:06:00 PM 42.2372 -83.9474 275° West  Level FlightAware Approximate
Fri 10:07:00 PM 42.2390 -83.8964 274° West  Level FlightAware Approximate
Fri 10:09:50 PM 42.2650 -84.2169 264° West 339 390 10,000  Level Chicago Center
Fri 10:10:51 PM 42.2625 -84.3444 269° West 340 391 10,000  Level Chicago Center
Fri 10:11:53 PM 42.2597 -84.4703 268° West 338 389 10,000  Level Chicago Center
Fri 10:12:54 PM 42.2583 -84.5969 269° West 338 389 10,000  Level Chicago Center
Fri 10:13:55 PM 42.2553 -84.7467 268° West 335 386 10,000  Level Chicago Center
Fri 10:14:00 PM 42.2500 -84.7544 270° West  Level FlightAware Approximate
Fri 10:14:57 PM 42.2597 -84.8742 273° West 344 396 10,000  Level Chicago Center
Fri 10:15:00 PM 42.2464 -84.8768 264° West  Level FlightAware Approximate
Fri 10:15:58 PM 42.2742 -84.9797 281° West 302 348 9,600  Level Chicago Center
Fri 10:16:59 PM 42.2897 -85.0714 283° West 260 299 7,900 -1,770 Descending Chicago Center
Fri 10:18:00 PM 42.3031 -85.1650 281° West 254 292 6,000 -1,902 Descending Chicago Center
Fri 10:19:02 PM 42.3153 -85.2597 280° West 256 295 4,000 -1,659 Descending Chicago Center
Fri 10:20:03 PM 42.3292 -85.3450 282° West 242 278 2,600 -738 Descending Chicago Center
Fri 10:21:04 PM 42.3436 -85.4158 285° West 210 242 2,500 -49 Descending Chicago Center
Fri 10:22:06 PM 42.3544 -85.4772 283° West 179 206 2,500  Level Chicago Center
Fri 10:23:07 PM 42.3394 -85.5333 250° West 167 192 2,500  Level Chicago Center

Login

Don't have an account? Register now (free) for customized features, flight alerts, and more!